Time;durP1;ratioP1;P1;durP2;ratioP2;P2;SDS_P1;SDS_P2;PMS_P1;PMS_P2;Temp;Humidity;BMP_temperature;BMP_pressure;BME280_temperature;BME280_humidity;BME280_pressure;Samples;Min_cycle;Max_cycle;Signal;HPM_P1;HPM_P2
2023/08/08 00:01:55;;;;;;;;;;;;;;;15.86;65.79;97856.34;5106405;27;4742;-76
2023/08/08 00:04:21;;;;;;;;;;;;;;;15.87;65.83;97851.72;5103743;27;4505;-75
2023/08/08 00:06:48;;;;;;;;;;;;;;;15.86;65.87;97845.50;5113871;27;4996;-76
2023/08/08 00:09:14;;;;;;;;;;;;;;;15.86;65.80;97848.22;5115639;27;4745;-74
2023/08/08 00:11:41;;;;;;;;;;;;;;;15.86;65.80;97850.94;5114903;27;4742;-76
2023/08/08 00:14:07;;;;;;;;;;;;;;;15.86;65.76;97850.13;5115312;27;6625;-75
2023/08/08 00:16:34;;;;;;;;;;;;;;;15.86;65.76;97850.13;5115358;27;4813;-75
2023/08/08 00:19:00;;;;;;;;;;;;;;;15.86;65.77;97848.22;5115521;27;4810;-75
2023/08/08 00:21:27;;;;;;;;;;;;;;;15.86;65.81;97844.72;5114517;27;4784;-75
2023/08/08 00:23:53;;;;;;;;;;;;;;;15.86;65.80;97850.94;5112406;27;4828;-76
2023/08/08 00:26:20;;;;;;;;;;;;;;;15.85;65.88;97852.06;5115248;27;4859;-76
2023/08/08 00:28:47;;;;;;;;;;;;;;;15.85;65.83;97862.91;5114937;27;4831;-75
2023/08/08 00:31:16;;;;;;;;;;;;;;;15.85;65.83;97871.06;5115399;27;4835;-75
2023/08/08 00:33:43;;;;;;;;;;;;;;;15.85;65.72;97856.66;5114480;27;4513;-75
2023/08/08 00:36:10;;;;;;;;;;;;;;;15.85;65.85;97862.91;5115768;27;5060;-75
2023/08/08 00:38:36;;;;;;;;;;;;;;;15.85;65.75;97854.78;5114271;27;4927;-76
2023/08/08 00:41:04;;;;;;;;;;;;;;;15.85;65.77;97848.53;5114791;27;4860;-76
2023/08/08 00:43:31;;;;;;;;;;;;;;;15.85;65.67;97840.38;5114776;27;4620;-75
2023/08/08 00:45:57;;;;;;;;;;;;;;;15.84;65.79;97845.00;5115998;27;4813;-75
2023/08/08 00:48:24;;;;;;;;;;;;;;;15.84;65.80;97842.31;5114023;27;4753;-75
2023/08/08 00:50:50;;;;;;;;;;;;;;;15.84;65.75;97836.88;5114743;27;4761;-75
2023/08/08 00:53:17;;;;;;;;;;;;;;;15.85;65.64;97832.25;5112811;27;4856;-75
2023/08/08 00:55:43;;;;;;;;;;;;;;;15.84;65.55;97827.94;5114063;27;4556;-75
2023/08/08 00:58:10;;;;;;;;;;;;;;;15.84;65.66;97825.22;5108927;27;4936;-75
2023/08/08 01:00:36;;;;;;;;;;;;;;;15.83;65.66;97827.16;5105121;27;4450;-75
2023/08/08 01:03:03;;;;;;;;;;;;;;;15.84;65.48;97819.78;5103196;27;4640;-75
2023/08/08 01:05:30;;;;;;;;;;;;;;;15.84;65.76;97819.78;5102010;27;4517;-76
2023/08/08 01:07:56;;;;;;;;;;;;;;;15.84;65.71;97811.66;5102088;27;4789;-76
2023/08/08 01:10:23;;;;;;;;;;;;;;;15.84;65.63;97820.59;5104088;27;4822;-76
2023/08/08 01:12:50;;;;;;;;;;;;;;;15.84;65.67;97826.03;5105980;27;4914;-75
2023/08/08 01:15:16;;;;;;;;;;;;;;;15.85;65.89;97824.09;5106798;27;4734;-75
2023/08/08 01:17:43;;;;;;;;;;;;;;;15.84;65.66;97830.66;5102956;27;4611;-76
2023/08/08 01:20:10;;;;;;;;;;;;;;;15.85;65.42;97827.63;5103037;27;4379;-76
2023/08/08 01:22:36;;;;;;;;;;;;;;;15.85;65.66;97824.09;5104390;27;4441;-76
2023/08/08 01:25:03;;;;;;;;;;;;;;;15.85;65.68;97813.25;5103940;27;4687;-75
2023/08/08 01:27:29;;;;;;;;;;;;;;;15.83;65.68;97800.00;5103521;27;4449;-76
2023/08/08 01:29:56;;;;;;;;;;;;;;;15.83;65.63;97805.44;5106503;27;4804;-74
2023/08/08 01:32:22;;;;;;;;;;;;;;;15.84;65.66;97803.50;5103503;27;3711;-75
2023/08/08 01:34:49;;;;;;;;;;;;;;;15.88;65.57;97801.75;5105457;27;4738;-76
2023/08/08 01:37:15;;;;;;;;;;;;;;;15.86;65.56;97807.50;5104107;27;4620;-75
2023/08/08 01:39:42;;;;;;;;;;;;;;;15.87;65.60;97803.66;5103496;27;4672;-76
2023/08/08 01:42:08;;;;;;;;;;;;;;;15.87;65.54;97811.81;5104271;27;4479;-75
2023/08/08 01:44:35;;;;;;;;;;;;;;;15.90;65.38;97808.44;5107887;27;4781;-76
2023/08/08 01:47:02;;;;;;;;;;;;;;;15.93;65.26;97798.06;5112751;27;4781;-75
2023/08/08 01:49:28;;;;;;;;;;;;;;;15.90;65.42;97804.94;5112831;27;4745;-75
2023/08/08 01:51:55;;;;;;;;;;;;;;;15.90;65.26;97804.94;5111966;27;4785;-76
2023/08/08 01:54:22;;;;;;;;;;;;;;;15.96;65.25;97805.56;5111833;27;4858;-75
2023/08/08 01:56:48;;;;;;;;;;;;;;;15.97;65.04;97794.41;5112007;27;6901;-76
2023/08/08 01:59:15;;;;;;;;;;;;;;;15.95;65.20;97785.78;5106616;27;4529;-76
2023/08/08 02:01:41;;;;;;;;;;;;;;;15.90;65.34;97785.94;5104178;27;4618;-76
2023/08/08 02:04:08;;;;;;;;;;;;;;;15.92;65.31;97785.63;5102339;27;4600;-76
2023/08/08 02:06:35;;;;;;;;;;;;;;;15.90;65.34;97788.66;5106244;27;4722;-76
2023/08/08 02:09:01;;;;;;;;;;;;;;;15.88;65.32;97788.16;5101135;27;4292;-77
2023/08/08 02:11:28;;;;;;;;;;;;;;;15.95;65.12;97782.28;5103184;27;3634;-76
2023/08/08 02:13:54;;;;;;;;;;;;;;;15.92;65.23;97782.94;5103666;27;4404;-76
2023/08/08 02:16:21;;;;;;;;;;;;;;;15.94;65.20;97781.47;5108314;27;4520;-76
2023/08/08 02:18:47;;;;;;;;;;;;;;;15.97;65.10;97771.88;5102032;27;4536;-76
2023/08/08 02:21:14;;;;;;;;;;;;;;;15.95;65.20;97774.13;5101507;28;4498;-74
2023/08/08 02:23:41;;;;;;;;;;;;;;;15.97;65.04;97758.31;5101790;27;4633;-75
2023/08/08 02:26:07;;;;;;;;;;;;;;;15.98;65.03;97755.28;5102570;28;6357;-73
2023/08/08 02:28:34;;;;;;;;;;;;;;;16.03;64.75;97757.84;5102278;28;4579;-74
2023/08/08 02:31:00;;;;;;;;;;;;;;;15.99;64.94;97754.16;5104401;27;4590;-75
2023/08/08 02:33:27;;;;;;;;;;;;;;;16.09;64.53;97745.69;5103299;28;4520;-74
2023/08/08 02:35:54;;;;;;;;;;;;;;;16.11;64.56;97748.06;5103971;27;4859;-76
2023/08/08 02:38:20;;;;;;;;;;;;;;;16.06;64.64;97753.66;5102917;27;4270;-74
2023/08/08 02:40:47;;;;;;;;;;;;;;;16.05;64.61;97744.72;5104078;28;4632;-77
2023/08/08 02:43:13;;;;;;;;;;;;;;;16.13;64.42;97740.41;5103156;28;4600;-74
2023/08/08 02:45:40;;;;;;;;;;;;;;;16.07;64.65;97744.41;5105416;27;4591;-74
2023/08/08 02:48:06;;;;;;;;;;;;;;;16.15;64.30;97749.03;5111348;27;4619;-74
2023/08/08 02:50:33;;;;;;;;;;;;;;;16.19;64.12;97752.66;5112381;27;4844;-75
2023/08/08 02:52:59;;;;;;;;;;;;;;;16.08;64.53;97748.69;5113461;27;4669;-74
2023/08/08 02:55:26;;;;;;;;;;;;;;;16.19;64.26;97747.25;5111849;27;4785;-75
2023/08/08 02:57:52;;;;;;;;;;;;;;;16.20;64.05;97743.38;5106996;27;4605;-75
2023/08/08 03:00:19;;;;;;;;;;;;;;;16.13;64.44;97743.91;5104837;27;4272;-75
2023/08/08 03:02:45;;;;;;;;;;;;;;;16.11;64.40;97742.63;5104687;28;4621;-74
2023/08/08 03:05:12;;;;;;;;;;;;;;;16.18;63.98;97732.09;5103628;27;4655;-77
2023/08/08 03:07:39;;;;;;;;;;;;;;;16.24;63.88;97736.22;5102716;28;4540;-74
2023/08/08 03:10:06;;;;;;;;;;;;;;;16.11;64.37;97724.41;5102657;28;4617;-77
2023/08/08 03:12:32;;;;;;;;;;;;;;;16.12;64.27;97717.88;5101640;28;4667;-77
2023/08/08 03:14:59;;;;;;;;;;;;;;;16.22;64.00;97710.50;5103563;27;4521;-76
2023/08/08 03:17:25;;;;;;;;;;;;;;;16.25;63.87;97716.06;5107508;27;4551;-75
2023/08/08 03:19:52;;;;;;;;;;;;;;;16.09;64.40;97698.75;5102427;27;4362;-77
2023/08/08 03:22:19;;;;;;;;;;;;;;;16.14;64.32;97703.97;5106933;27;4526;-76
2023/08/08 03:24:45;;;;;;;;;;;;;;;16.21;64.02;97700.78;5104844;27;4773;-76
2023/08/08 03:27:12;;;;;;;;;;;;;;;16.18;63.97;97699.50;5106097;27;4791;-75
2023/08/08 03:29:38;;;;;;;;;;;;;;;16.18;64.08;97701.41;5106267;27;4394;-76
2023/08/08 03:32:05;;;;;;;;;;;;;;;16.10;64.32;97706.53;5111542;27;4684;-75
2023/08/08 03:34:31;;;;;;;;;;;;;;;16.14;64.32;97695.81;5107472;27;4764;-75
2023/08/08 03:36:58;;;;;;;;;;;;;;;16.06;64.41;97696.66;5106952;27;4868;-76
2023/08/08 03:39:24;;;;;;;;;;;;;;;16.32;63.51;97694.66;5105947;27;4612;-76
2023/08/08 03:41:51;;;;;;;;;;;;;;;16.34;63.33;97691.59;5105477;27;4656;-75
2023/08/08 03:44:18;;;;;;;;;;;;;;;16.16;64.00;97690.88;5105598;27;4667;-76
2023/08/08 03:46:44;;;;;;;;;;;;;;;16.18;63.86;97688.63;5107544;27;4741;-75
2023/08/08 03:49:11;;;;;;;;;;;;;;;16.32;63.48;97682.97;5109421;27;4683;-75
2023/08/08 03:51:37;;;;;;;;;;;;;;;16.13;64.09;97684.16;5109907;27;4652;-75
2023/08/08 03:54:04;;;;;;;;;;;;;;;16.30;63.46;97682.50;5101500;27;4974;-76
2023/08/08 03:56:30;;;;;;;;;;;;;;;16.13;64.01;97683.38;5107037;27;4670;-75
2023/08/08 03:58:57;;;;;;;;;;;;;;;16.16;64.11;97690.06;5107468;27;4800;-76
2023/08/08 04:01:24;;;;;;;;;;;;;;;16.25;63.78;97698.97;5104995;27;4743;-75
2023/08/08 04:03:50;;;;;;;;;;;;;;;16.15;64.01;97685.75;5106644;27;4473;-76
2023/08/08 04:06:17;;;;;;;;;;;;;;;16.16;63.93;97690.06;5109099;27;4745;-75
2023/08/08 04:08:43;;;;;;;;;;;;;;;16.10;64.18;97678.59;5106652;27;4521;-76
2023/08/08 04:11:10;;;;;;;;;;;;;;;16.13;64.07;97686.09;5109755;27;4753;-75
2023/08/08 04:13:36;;;;;;;;;;;;;;;16.12;64.10;97674.44;5114576;27;5162;-75
2023/08/08 04:16:03;;;;;;;;;;;;;;;16.12;64.08;97654.66;5114824;27;4669;-75
2023/08/08 04:18:29;;;;;;;;;;;;;;;16.09;64.16;97658.81;5109720;27;4635;-76
2023/08/08 04:20:56;;;;;;;;;;;;;;;16.16;64.08;97663.72;5101502;27;4522;-76
2023/08/08 04:23:25;;;;;;;;;;;;;;;16.03;64.34;97657.41;5103259;27;4454;-76
2023/08/08 04:25:52;;;;;;;;;;;;;;;16.07;64.28;97652.91;5106856;27;4765;-77
2023/08/08 04:28:18;;;;;;;;;;;;;;;16.04;64.28;97647.34;5111324;27;4752;-74
2023/08/08 04:30:45;;;;;;;;;;;;;;;16.05;64.27;97657.06;5115622;27;4797;-74
2023/08/08 04:33:11;;;;;;;;;;;;;;;16.06;64.27;97653.22;5112024;27;4603;-74
2023/08/08 04:35:38;;;;;;;;;;;;;;;16.06;64.32;97654.03;5115263;27;4796;-75
2023/08/08 04:38:04;;;;;;;;;;;;;;;16.07;64.17;97652.91;5113603;27;4571;-75
2023/08/08 04:40:31;;;;;;;;;;;;;;;16.07;64.27;97654.81;5113545;27;4638;-76
2023/08/08 04:42:58;;;;;;;;;;;;;;;16.05;64.36;97654.34;5115313;27;4875;-76
2023/08/08 04:45:24;;;;;;;;;;;;;;;15.99;64.53;97644.78;5113034;27;4793;-76
2023/08/08 04:47:51;;;;;;;;;;;;;;;15.99;64.54;97642.06;5113491;27;4786;-75
2023/08/08 04:50:17;;;;;;;;;;;;;;;15.92;64.71;97639.09;5107150;27;4513;-76
2023/08/08 04:52:44;;;;;;;;;;;;;;;15.97;64.40;97623.41;5104494;27;4695;-75
2023/08/08 04:55:10;;;;;;;;;;;;;;;16.01;64.39;97628.97;5104565;27;4520;-75
2023/08/08 04:57:37;;;;;;;;;;;;;;;15.94;64.57;97621.31;5113986;27;4756;-75
2023/08/08 05:00:05;;;;;;;;;;;;;;;15.94;64.57;97615.09;5112200;27;5071;-75
2023/08/08 05:02:32;;;;;;;;;;;;;;;15.93;64.61;97617.03;5113060;27;4614;-74
2023/08/08 05:04:58;;;;;;;;;;;;;;;15.94;64.59;97621.31;5116232;27;4254;-74
2023/08/08 05:07:25;;;;;;;;;;;;;;;16.03;64.30;97616.69;5115657;27;4282;-76
2023/08/08 05:09:51;;;;;;;;;;;;;;;15.87;64.74;97605.56;5115870;27;4327;-75
2023/08/08 05:12:18;;;;;;;;;;;;;;;15.87;64.75;97602.06;5113912;27;4852;-75
2023/08/08 05:14:44;;;;;;;;;;;;;;;15.86;64.87;97611.31;5115451;27;4065;-76
2023/08/08 05:17:11;;;;;;;;;;;;;;;15.90;64.72;97604.13;5115617;27;4146;-75
2023/08/08 05:19:37;;;;;;;;;;;;;;;15.88;64.83;97590.06;5116028;27;4341;-75
2023/08/08 05:22:04;;;;;;;;;;;;;;;15.89;64.78;97587.03;5113579;27;4294;-76
2023/08/08 05:24:30;;;;;;;;;;;;;;;15.92;64.68;97585.59;5116303;27;4219;-75
2023/08/08 05:26:57;;;;;;;;;;;;;;;15.87;64.81;97593.91;5112906;27;4339;-75
2023/08/08 05:29:24;;;;;;;;;;;;;;;15.85;64.84;97594.25;5114749;27;4232;-75
2023/08/08 05:31:50;;;;;;;;;;;;;;;15.77;65.12;97589.66;5114477;27;4306;-75
2023/08/08 05:34:17;;;;;;;;;;;;;;;15.82;65.01;97584.03;5113341;27;4398;-77
2023/08/08 05:36:43;;;;;;;;;;;;;;;15.76;65.23;97589.97;5110517;27;4245;-76
2023/08/08 05:39:10;;;;;;;;;;;;;;;15.77;65.10;97594.28;5104781;27;4695;-78
2023/08/08 05:41:36;;;;;;;;;;;;;;;15.78;65.14;97591.22;5102931;27;5585;-77
2023/08/08 05:44:03;;;;;;;;;;;;;;;15.76;65.31;97588.03;5104310;27;4465;-76
2023/08/08 05:46:29;;;;;;;;;;;;;;;15.74;65.30;97589.50;5103349;27;4623;-75
2023/08/08 05:48:56;;;;;;;;;;;;;;;15.71;65.39;97587.44;5107824;27;4630;-75
2023/08/08 05:51:22;;;;;;;;;;;;;;;15.71;65.42;97584.75;5107194;27;4695;-76
2023/08/08 05:53:49;;;;;;;;;;;;;;;15.70;65.42;97583.13;5103740;27;4513;-76
2023/08/08 05:56:15;;;;;;;;;;;;;;;15.70;65.42;97586.63;5104290;27;4438;-75
2023/08/08 05:58:42;;;;;;;;;;;;;;;15.76;65.21;97584.53;5112909;27;5073;-75
2023/08/08 06:01:09;;;;;;;;;;;;;;;15.73;65.23;97583.25;5112258;27;4749;-75
2023/08/08 06:03:37;;;;;;;;;;;;;;;15.71;65.42;97579.31;5112761;27;4673;-75
2023/08/08 06:06:03;;;;;;;;;;;;;;;15.70;65.42;97583.13;5104955;27;4805;-76
2023/08/08 06:08:30;;;;;;;;;;;;;;;15.70;65.32;97578.50;5097040;27;4683;-77
2023/08/08 06:10:57;;;;;;;;;;;;;;;15.71;65.40;97579.31;5103953;27;5362;-75
2023/08/08 06:13:23;;;;;;;;;;;;;;;15.69;65.36;97576.91;5107872;27;4667;-77
2023/08/08 06:15:50;;;;;;;;;;;;;;;15.68;65.35;97572.63;5104149;27;4667;-76
2023/08/08 06:18:17;;;;;;;;;;;;;;;15.70;65.43;97573.06;5098002;27;4715;-75
2023/08/08 06:20:43;;;;;;;;;;;;;;;15.73;65.27;97566.19;5101109;27;4612;-74
2023/08/08 06:23:10;;;;;;;;;;;;;;;15.73;65.24;97564.28;5100422;28;4612;-76
2023/08/08 06:25:38;;;;;;;;;;;;;;;15.70;65.46;97554.06;5104770;27;4303;-76
2023/08/08 06:28:05;;;;;;;;;;;;;;;15.69;65.41;97557.13;5100822;27;4404;-77
2023/08/08 06:30:31;;;;;;;;;;;;;;;15.69;65.43;97549.00;5104710;28;3748;-75
2023/08/08 06:32:58;;;;;;;;;;;;;;;15.70;65.39;97535.06;5100189;27;4603;-75
2023/08/08 06:35:24;;;;;;;;;;;;;;;15.69;65.37;97535.41;5099291;27;4514;-77
2023/08/08 06:37:51;;;;;;;;;;;;;;;15.74;65.24;97537.97;5100676;27;4613;-75
2023/08/08 06:40:18;;;;;;;;;;;;;;;15.72;65.32;97529.34;5101554;27;5253;-75
2023/08/08 06:42:44;;;;;;;;;;;;;;;15.69;65.33;97530.78;5103976;27;4705;-74
2023/08/08 06:45:11;;;;;;;;;;;;;;;15.67;65.51;97527.56;5104802;27;4759;-77
2023/08/08 06:47:37;;;;;;;;;;;;;;;15.70;65.38;97532.38;5104584;27;4655;-76
2023/08/08 06:50:05;;;;;;;;;;;;;;;15.67;65.56;97536.53;5106695;27;4599;-76
2023/08/08 06:52:31;;;;;;;;;;;;;;;15.66;65.47;97524.06;5111670;27;6682;-76
2023/08/08 06:54:58;;;;;;;;;;;;;;;15.65;65.55;97518.97;5113620;27;6648;-76
2023/08/08 06:57:24;;;;;;;;;;;;;;;15.65;65.58;97514.34;5115132;27;5020;-76
2023/08/08 06:59:52;;;;;;;;;;;;;;;15.66;65.59;97515.13;5116428;27;4829;-76
2023/08/08 07:02:19;;;;;;;;;;;;;;;15.65;65.55;97518.97;5115358;27;4733;-75
2023/08/08 07:04:45;;;;;;;;;;;;;;;15.64;65.49;97511.94;5113797;27;4626;-75
2023/08/08 07:07:12;;;;;;;;;;;;;;;15.65;65.50;97508.91;5108017;27;4896;-74
2023/08/08 07:09:38;;;;;;;;;;;;;;;15.65;65.53;97508.13;5106063;27;4637;-77
2023/08/08 07:12:05;;;;;;;;;;;;;;;15.64;65.47;97504.59;5104073;27;4642;-76
2023/08/08 07:14:32;;;;;;;;;;;;;;;15.65;65.59;97502.69;5114015;27;4705;-75
2023/08/08 07:16:59;;;;;;;;;;;;;;;15.65;65.59;97500.78;5114609;27;4897;-76
2023/08/08 07:19:25;;;;;;;;;;;;;;;15.65;65.63;97489.94;5115466;27;4843;-75
2023/08/08 07:21:52;;;;;;;;;;;;;;;15.64;65.60;97479.38;5115001;27;4883;-76
2023/08/08 07:24:19;;;;;;;;;;;;;;;15.65;65.62;97486.44;5114945;27;4711;-76
2023/08/08 07:26:46;;;;;;;;;;;;;;;15.64;65.71;97477.47;5116547;27;4883;-76
2023/08/08 07:29:12;;;;;;;;;;;;;;;15.65;65.67;97470.16;5116024;27;4764;-77
2023/08/08 07:31:39;;;;;;;;;;;;;;;15.64;65.55;97463.91;5114270;27;4523;-77
2023/08/08 07:34:05;;;;;;;;;;;;;;;15.65;65.56;97457.38;5105226;27;4563;-78
2023/08/08 07:36:32;;;;;;;;;;;;;;;15.65;65.53;97457.38;5108888;27;4572;-77
2023/08/08 07:38:59;;;;;;;;;;;;;;;15.65;65.57;97448.44;5110445;27;4666;-77
2023/08/08 07:41:26;;;;;;;;;;;;;;;15.64;65.64;97447.63;5108029;27;4304;-77
2023/08/08 07:43:52;;;;;;;;;;;;;;;15.65;65.67;97445.72;5106512;27;3933;-76
2023/08/08 07:46:19;;;;;;;;;;;;;;;15.65;65.56;97443.03;5111810;27;4738;-76
2023/08/08 07:48:45;;;;;;;;;;;;;;;15.65;65.69;97438.38;5117425;27;4800;-76
2023/08/08 07:51:12;;;;;;;;;;;;;;;15.66;65.57;97448.09;5117590;27;4733;-76
2023/08/08 07:53:38;;;;;;;;;;;;;;;15.66;65.59;97450.81;5110671;27;4811;-76
2023/08/08 07:56:05;;;;;;;;;;;;;;;15.73;68.67;97446.81;5108243;27;5762;-78
2023/08/08 07:58:32;;;;;;;;;;;;;;;15.75;67.17;97445.38;5114396;27;4647;-78
2023/08/08 08:00:59;;;;;;;;;;;;;;;15.66;67.27;97442.69;5115302;27;4501;-77
2023/08/08 08:03:26;;;;;;;;;;;;;;;15.60;67.11;97443.19;5115354;27;4698;-77
2023/08/08 08:05:52;;;;;;;;;;;;;;;15.57;67.26;97439.22;5114822;27;4730;-77
2023/08/08 08:08:19;;;;;;;;;;;;;;;15.54;67.41;97431.75;5115592;27;4730;-78
2023/08/08 08:10:45;;;;;;;;;;;;;;;15.53;67.50;97423.91;5115809;27;4699;-78
2023/08/08 08:13:12;;;;;;;;;;;;;;;15.52;67.61;97431.28;5115372;27;4656;-77
2023/08/08 08:15:39;;;;;;;;;;;;;;;15.52;67.63;97425.06;5113366;27;4724;-77
2023/08/08 08:18:05;;;;;;;;;;;;;;;15.50;67.57;97422.69;5113557;27;4597;-77
2023/08/08 08:20:32;;;;;;;;;;;;;;;15.49;67.53;97412.94;5115029;27;4747;-76
2023/08/08 08:22:58;;;;;;;;;;;;;;;15.49;67.42;97412.16;5114756;27;4890;-77
2023/08/08 08:25:25;;;;;;;;;;;;;;;15.50;67.34;97408.31;5112308;27;4812;-77
2023/08/08 08:27:51;;;;;;;;;;;;;;;15.49;67.12;97407.50;5113318;27;4985;-77
2023/08/08 08:30:19;;;;;;;;;;;;;;;15.49;66.99;97404.00;5105311;27;4502;-75
2023/08/08 08:32:46;;;;;;;;;;;;;;;15.49;66.95;97398.59;5107524;27;4457;-75
2023/08/08 08:35:13;;;;;;;;;;;;;;;15.49;66.86;97395.88;5105081;27;4858;-77
2023/08/08 08:37:40;;;;;;;;;;;;;;;15.49;67.00;97383.09;5109674;27;4778;-75
2023/08/08 08:40:07;;;;;;;;;;;;;;;15.48;66.92;97380.75;5102988;27;4841;-76
2023/08/08 08:42:33;;;;;;;;;;;;;;;15.48;66.91;97373.41;5109852;27;4252;-78
2023/08/08 08:45:00;;;;;;;;;;;;;;;15.49;66.96;97374.97;5113424;27;3329;-74
2023/08/08 08:47:27;;;;;;;;;;;;;;;15.49;66.91;97360.63;5113012;27;2605;-74
2023/08/08 08:49:53;;;;;;;;;;;;;;;15.48;66.88;97357.13;5119567;27;2192;-75
2023/08/08 08:52:20;;;;;;;;;;;;;;;15.49;66.91;97347.06;5122373;27;2589;-77
2023/08/08 08:54:46;;;;;;;;;;;;;;;15.48;66.86;97335.44;5123279;27;2434;-77
2023/08/08 08:57:13;;;;;;;;;;;;;;;15.49;66.83;97336.22;5103101;27;4750;-79
2023/08/08 08:59:39;;;;;;;;;;;;;;;15.48;66.95;97340.84;5109007;27;3269;-77
2023/08/08 09:02:06;;;;;;;;;;;;;;;15.49;66.99;97336.22;5110105;27;4030;-75
2023/08/08 09:04:32;;;;;;;;;;;;;;;15.49;66.90;97338.94;5111325;27;2378;-77
2023/08/08 09:06:59;;;;;;;;;;;;;;;15.49;66.90;97333.50;5115474;27;2198;-78
2023/08/08 09:09:25;;;;;;;;;;;;;;;15.49;66.92;97336.22;5111792;27;2364;-77
2023/08/08 09:11:53;;;;;;;;;;;;;;;15.49;66.96;97330.78;5115808;27;2276;-78
2023/08/08 09:14:19;;;;;;;;;;;;;;;15.50;66.99;97324.22;5116488;27;4027;-77
2023/08/08 09:16:46;;;;;;;;;;;;;;;15.49;67.03;97320.72;5121909;27;2065;-77
2023/08/08 09:19:13;;;;;;;;;;;;;;;15.48;66.98;97319.16;5123270;27;1395;-76
2023/08/08 09:21:39;;;;;;;;;;;;;;;15.49;66.97;97314.53;5123085;27;1503;-76
2023/08/08 09:24:06;;;;;;;;;;;;;;;15.50;67.03;97307.97;5121314;27;1969;-76
2023/08/08 09:26:32;;;;;;;;;;;;;;;15.50;67.11;97303.34;5121950;27;1982;-77
2023/08/08 09:28:59;;;;;;;;;;;;;;;15.50;67.02;97297.94;5122446;27;2849;-76
2023/08/08 09:31:25;;;;;;;;;;;;;;;15.50;67.05;97287.09;5121459;27;1593;-76
2023/08/08 09:33:52;;;;;;;;;;;;;;;15.50;66.99;97283.56;5122832;27;1657;-77
2023/08/08 09:36:21;;;;;;;;;;;;;;;15.50;67.06;97276.25;5121629;27;2121;-77
2023/08/08 09:38:47;;;;;;;;;;;;;;;15.51;67.04;97274.31;5119553;27;1463;-75
2023/08/08 09:41:15;;;;;;;;;;;;;;;15.51;67.06;97279.75;5123357;27;1972;-77
2023/08/08 09:43:41;;;;;;;;;;;;;;;15.51;67.07;97277.03;5124343;27;1890;-76
2023/08/08 09:46:07;;;;;;;;;;;;;;;15.52;67.15;97278.59;5120162;27;2053;-79
2023/08/08 09:48:34;;;;;;;;;;;;;;;15.51;67.06;97279.75;5115883;27;2440;-76
2023/08/08 09:51:01;;;;;;;;;;;;;;;15.52;67.14;97282.09;5109494;27;2329;-77
2023/08/08 09:53:27;;;;;;;;;;;;;;;15.52;67.34;97273.19;5108680;27;2251;-75
2023/08/08 09:55:54;;;;;;;;;;;;;;;15.52;67.29;97268.53;5108917;27;4474;-76
2023/08/08 09:58:20;;;;;;;;;;;;;;;15.52;67.28;97273.19;5121988;27;985;-77
2023/08/08 10:00:47;;;;;;;;;;;;;;;15.53;67.21;97266.63;5120065;27;2070;-76
2023/08/08 10:03:13;;;;;;;;;;;;;;;15.53;67.16;97258.47;5117879;27;2114;-77
2023/08/08 10:05:40;;;;;;;;;;;;;;;15.54;67.27;97260.88;5119583;27;1673;-77
2023/08/08 10:08:07;;;;;;;;;;;;;;;15.54;67.19;97251.94;5121838;27;1796;-77
2023/08/08 10:10:33;;;;;;;;;;;;;;;15.54;67.27;97247.31;5121956;27;1495;-77
2023/08/08 10:12:59;;;;;;;;;;;;;;;15.53;67.25;97244.91;5120211;27;1785;-78
2023/08/08 10:15:26;;;;;;;;;;;;;;;15.54;67.39;97247.31;5120893;27;1376;-76
2023/08/08 10:17:53;;;;;;;;;;;;;;;15.54;67.32;97244.59;5122721;27;1423;-77
2023/08/08 10:20:21;;;;;;;;;;;;;;;15.55;67.34;97245.41;5122118;28;1061;-77
2023/08/08 10:22:47;;;;;;;;;;;;;;;15.56;67.40;97244.25;5121851;27;2042;-77
2023/08/08 10:25:14;;;;;;;;;;;;;;;15.55;67.37;97240.75;5122951;27;1624;-77
2023/08/08 10:27:40;;;;;;;;;;;;;;;15.57;67.47;97248.56;5113551;28;5013;-75
2023/08/08 10:30:09;;;;;;;;;;;;;;;15.58;67.49;97242.00;5110186;27;2966;-78
2023/08/08 10:32:35;;;;;;;;;;;;;;;15.57;67.52;97233.09;5116455;27;3056;-78
2023/08/08 10:35:02;;;;;;;;;;;;;;;15.57;67.52;97226.88;5108121;27;2472;-76
2023/08/08 10:37:28;;;;;;;;;;;;;;;15.58;67.55;97221.09;5115642;27;2356;-78
2023/08/08 10:39:55;;;;;;;;;;;;;;;15.59;67.46;97230.06;5113875;27;2132;-78
2023/08/08 10:42:21;;;;;;;;;;;;;;;15.60;67.57;97223.50;5113761;27;2226;-79
2023/08/08 10:44:48;;;;;;;;;;;;;;;15.60;67.69;97216.16;5117862;27;3255;-76
2023/08/08 10:47:14;;;;;;;;;;;;;;;15.61;67.54;97216.94;5119647;27;3907;-75
2023/08/08 10:49:41;;;;;;;;;;;;;;;15.62;67.58;97216.63;5125102;27;3417;-76
2023/08/08 10:52:07;;;;;;;;;;;;;;;15.61;67.73;97220.44;5114698;27;3057;-76
2023/08/08 10:54:34;;;;;;;;;;;;;;;15.61;67.57;97215.00;5113401;27;2344;-75
2023/08/08 10:57:00;;;;;;;;;;;;;;;15.60;67.61;97216.16;5115574;27;2267;-77
2023/08/08 10:59:27;;;;;;;;;;;;;;;15.62;67.63;97213.91;5116368;27;2154;-77
2023/08/08 11:01:56;;;;;;;;;;;;;;;15.62;67.74;97218.53;5115078;27;2242;-76
2023/08/08 11:04:23;;;;;;;;;;;;;;;15.62;67.71;97208.47;5115184;27;3137;-77
2023/08/08 11:06:49;;;;;;;;;;;;;;;15.62;67.79;97211.19;5115227;27;2262;-76
2023/08/08 11:09:16;;;;;;;;;;;;;;;15.64;67.79;97216.28;5115202;27;2515;-76
2023/08/08 11:11:42;;;;;;;;;;;;;;;15.64;67.80;97217.06;5115003;27;2108;-77
2023/08/08 11:14:09;;;;;;;;;;;;;;;15.64;67.86;97221.69;5114552;27;2167;-76
2023/08/08 11:16:36;;;;;;;;;;;;;;;15.64;67.85;97219.78;5114679;27;2562;-78
2023/08/08 11:19:02;;;;;;;;;;;;;;;15.65;67.96;97220.59;5112290;27;2314;-77
2023/08/08 11:21:29;;;;;;;;;;;;;;;15.65;67.95;97212.44;5114702;27;2142;-77
2023/08/08 11:23:55;;;;;;;;;;;;;;;15.65;67.97;97213.25;5116013;27;2206;-77
2023/08/08 11:26:23;;;;;;;;;;;;;;;15.66;68.03;97214.03;5114728;27;2631;-77
2023/08/08 11:28:49;;;;;;;;;;;;;;;15.67;67.94;97215.59;5113640;27;2272;-77
2023/08/08 11:31:16;;;;;;;;;;;;;;;15.66;67.98;97216.75;5115303;27;2195;-77
2023/08/08 11:33:43;;;;;;;;;;;;;;;15.66;68.07;97209.38;5113632;27;2126;-77
2023/08/08 11:36:10;;;;;;;;;;;;;;;15.67;68.04;97216.41;5117724;27;2684;-76
2023/08/08 11:38:37;;;;;;;;;;;;;;;15.67;67.97;97216.41;5115744;27;2169;-77
2023/08/08 11:41:03;;;;;;;;;;;;;;;15.68;67.96;97214.53;5116301;27;2198;-76
2023/08/08 11:43:30;;;;;;;;;;;;;;;15.68;68.02;97217.25;5118038;27;2218;-76
2023/08/08 11:45:56;;;;;;;;;;;;;;;15.69;67.90;97218.03;5121883;27;2273;-76
2023/08/08 11:48:23;;;;;;;;;;;;;;;15.69;67.92;97215.31;5125318;27;1781;-77
2023/08/08 11:50:49;;;;;;;;;;;;;;;15.69;67.99;97207.19;5116596;27;2141;-77
2023/08/08 11:53:16;;;;;;;;;;;;;;;15.69;67.87;97207.19;5113892;27;2195;-76
2023/08/08 11:55:42;;;;;;;;;;;;;;;15.69;67.92;97205.25;5117331;27;2274;-78
2023/08/08 11:58:09;;;;;;;;;;;;;;;15.68;67.98;97200.97;5114670;27;2207;-76
2023/08/08 12:00:36;;;;;;;;;;;;;;;15.69;67.90;97202.53;5113638;27;2333;-76
2023/08/08 12:03:04;;;;;;;;;;;;;;;15.69;67.98;97196.31;5104582;27;4186;-78
2023/08/08 12:05:31;;;;;;;;;;;;;;;15.70;67.99;97195.19;5117993;27;3332;-77
2023/08/08 12:07:58;;;;;;;;;;;;;;;15.70;67.91;97200.59;5123885;27;3575;-76
2023/08/08 12:10:25;;;;;;;;;;;;;;;15.70;67.95;97195.97;5125279;27;1320;-76
2023/08/08 12:12:51;;;;;;;;;;;;;;;15.71;68.00;97197.56;5120522;27;4940;-77
2023/08/08 12:15:18;;;;;;;;;;;;;;;15.71;67.91;97194.88;5124338;27;4315;-78
2023/08/08 12:17:44;;;;;;;;;;;;;;;15.71;68.01;97192.16;5123848;27;1447;-77
2023/08/08 12:20:11;;;;;;;;;;;;;;;15.72;68.06;97188.31;5123885;27;3707;-78
2023/08/08 12:22:37;;;;;;;;;;;;;;;15.71;68.10;97186.72;5123352;27;2189;-77
2023/08/08 12:25:04;;;;;;;;;;;;;;;15.73;68.20;97191.81;5118661;27;4262;-77
2023/08/08 12:27:30;;;;;;;;;;;;;;;15.73;68.13;97189.88;5123245;27;1521;-77
2023/08/08 12:29:57;;;;;;;;;;;;;;;15.73;68.09;97200.72;5124290;27;1037;-76
2023/08/08 12:32:24;;;;;;;;;;;;;;;15.74;68.18;97191.47;5119802;27;2134;-76
2023/08/08 12:34:51;;;;;;;;;;;;;;;15.74;68.13;97196.91;5116331;27;2380;-77
2023/08/08 12:37:17;;;;;;;;;;;;;;;15.75;68.28;97197.69;5116941;27;2095;-75
2023/08/08 12:39:44;;;;;;;;;;;;;;;15.75;68.11;97195.78;5114431;27;2524;-78
2023/08/08 12:42:11;;;;;;;;;;;;;;;15.76;68.12;97199.28;5119348;27;2122;-77
2023/08/08 12:44:37;;;;;;;;;;;;;;;15.76;68.10;97191.13;5122833;27;2114;-76
2023/08/08 12:47:04;;;;;;;;;;;;;;;15.75;68.16;97195.78;5121728;27;2649;-76
2023/08/08 12:49:30;;;;;;;;;;;;;;;15.76;68.05;97194.63;5109152;27;5098;-76
2023/08/08 12:51:57;;;;;;;;;;;;;;;15.78;68.03;97194.31;5116136;27;4288;-75
2023/08/08 12:54:23;;;;;;;;;;;;;;;15.77;68.04;97190.81;5116320;27;2405;-75